createdAt,value
2019-01-03T00:00:46.253Z,1.50
2019-01-03T00:03:16.743Z,1.58
2019-01-03T00:05:47.551Z,1.55
2019-01-03T00:08:18.246Z,1.53
2019-01-03T00:10:46.567Z,1.50
2019-01-03T00:13:17.562Z,1.58
2019-01-03T00:15:49.682Z,1.50
2019-01-03T00:18:20.779Z,1.47
2019-01-03T00:20:51.493Z,1.39
2019-01-03T00:23:21.896Z,1.31
2019-01-03T00:25:53.045Z,1.34
2019-01-03T00:28:25.166Z,1.28
2019-01-03T00:30:56.178Z,1.24
2019-01-03T00:33:28.132Z,1.18
2019-01-03T00:35:58.449Z,1.09
2019-01-03T00:38:30.192Z,1.20
2019-01-03T00:41:03.200Z,1.15
2019-01-03T00:43:34.034Z,1.15
2019-01-03T00:46:05.085Z,1.26
2019-01-03T00:48:37.230Z,1.21
2019-01-03T00:51:07.969Z,1.30
2019-01-03T00:53:38.261Z,1.27
2019-01-03T00:56:09.341Z,1.25
2019-01-03T00:58:39.944Z,1.21
2019-01-03T01:01:12.238Z,1.18
2019-01-03T01:03:43.347Z,1.21
2019-01-03T01:06:11.929Z,1.23
2019-01-03T01:08:44.062Z,1.26
2019-01-03T01:11:15.652Z,1.21
2019-01-03T01:13:46.297Z,1.37
2019-01-03T01:16:19.449Z,1.28
2019-01-03T01:18:50.493Z,1.32
2019-01-03T01:21:22.160Z,1.42
2019-01-03T01:23:53.274Z,1.49
2019-01-03T01:26:26.460Z,1.60
2019-01-03T01:28:57.433Z,1.61
2019-01-03T01:31:28.393Z,1.62
2019-01-03T01:33:59.364Z,1.47
2019-01-03T01:36:31.554Z,1.50
2019-01-03T01:39:01.851Z,1.51
2019-01-03T01:41:32.905Z,1.44
2019-01-03T01:44:04.029Z,1.39
2019-01-03T01:46:34.121Z,1.35
2019-01-03T01:49:05.234Z,1.27
2019-01-03T01:51:37.222Z,1.31
2019-01-03T01:54:07.519Z,1.28
2019-01-03T01:56:38.606Z,1.30
2019-01-03T01:59:07.721Z,1.30
2019-01-03T02:01:39.235Z,2.24
2019-01-03T02:04:07.626Z,3.58
2019-01-03T02:06:38.521Z,3.32
2019-01-03T02:09:10.704Z,2.87
2019-01-03T02:11:41.839Z,2.52
2019-01-03T02:14:11.468Z,2.32
2019-01-03T02:16:42.450Z,2.10
2019-01-03T02:19:13.117Z,2.04
2019-01-03T02:21:46.065Z,1.93
2019-01-03T02:24:18.174Z,1.97
2019-01-03T02:26:46.761Z,1.95
2019-01-03T02:29:17.935Z,1.98
2019-01-03T02:31:48.434Z,1.91
2019-01-03T02:34:19.174Z,2.02
2019-01-03T02:36:50.150Z,1.97
2019-01-03T02:39:21.137Z,2.05
2019-01-03T02:41:52.224Z,1.94
2019-01-03T02:44:24.241Z,1.86
2019-01-03T02:46:55.186Z,1.74
2019-01-03T02:49:26.404Z,1.71
2019-01-03T02:51:57.373Z,1.66
2019-01-03T02:54:28.351Z,1.61
2019-01-03T02:56:59.327Z,1.49
2019-01-03T02:59:30.449Z,1.45
2019-01-03T03:02:01.530Z,1.53
2019-01-03T03:04:34.458Z,1.54
2019-01-03T03:07:05.085Z,1.57
2019-01-03T03:09:35.801Z,1.52
2019-01-03T03:12:06.719Z,1.58
2019-01-03T03:14:37.690Z,1.33
2019-01-03T03:17:07.456Z,1.49
2019-01-03T03:19:39.331Z,1.34
2019-01-03T03:22:11.326Z,1.41
2019-01-03T03:24:42.415Z,1.48
2019-01-03T03:27:13.453Z,1.45
2019-01-03T03:29:44.397Z,1.58
2019-01-03T03:32:16.564Z,1.50
2019-01-03T03:34:48.773Z,1.59
2019-01-03T03:37:20.910Z,1.63
2019-01-03T03:39:51.488Z,1.47
2019-01-03T03:42:22.586Z,1.48
2019-01-03T03:44:52.841Z,1.50
2019-01-03T03:47:23.870Z,1.50
2019-01-03T03:49:54.964Z,1.64
2019-01-03T03:52:25.777Z,1.59
2019-01-03T03:54:57.909Z,1.58
2019-01-03T03:57:29.929Z,1.63
2019-01-03T04:00:00.899Z,1.58
2019-01-03T04:02:33.037Z,1.55
2019-01-03T04:05:03.832Z,1.58
2019-01-03T04:07:35.059Z,1.60
2019-01-03T04:12:44.089Z,1.88
2019-01-03T04:15:12.905Z,1.86
2019-01-03T04:17:44.980Z,2.02
2019-01-03T04:20:15.765Z,1.98
2019-01-03T04:22:47.884Z,1.96
2019-01-03T04:25:18.356Z,2.05
2019-01-03T04:27:50.398Z,2.08
2019-01-03T04:30:18.953Z,1.93
2019-01-03T04:32:50.068Z,1.85
2019-01-03T04:35:21.174Z,2.03
2019-01-03T04:37:50.791Z,1.98
2019-01-03T04:40:21.823Z,1.84
2019-01-03T04:42:53.698Z,1.94
2019-01-03T04:45:23.999Z,2.05
2019-01-03T04:47:55.629Z,1.97
2019-01-03T04:50:25.707Z,2.20
2019-01-03T04:52:56.854Z,1.99
2019-01-03T04:55:27.144Z,2.20
2019-01-03T04:57:59.110Z,2.24
2019-01-03T05:00:30.252Z,2.22
2019-01-03T05:05:40.642Z,2.06
2019-01-03T05:08:13.073Z,1.85
2019-01-03T05:10:44.020Z,1.83
2019-01-03T05:13:15.138Z,1.69
2019-01-03T05:15:45.876Z,1.23
2019-01-03T05:18:17.886Z,1.34
2019-01-03T05:20:48.065Z,1.49
2019-01-03T05:23:19.113Z,1.52
2019-01-03T05:25:50.233Z,1.48
2019-01-03T05:28:21.327Z,1.30
2019-01-03T05:30:52.442Z,1.53
2019-01-03T05:33:23.545Z,1.66
2019-01-03T05:35:55.673Z,1.69
2019-01-03T05:38:27.407Z,1.74
2019-01-03T05:40:58.487Z,1.60
2019-01-03T05:43:29.209Z,1.52
2019-01-03T05:46:01.861Z,1.56
2019-01-03T05:48:34.861Z,1.59
2019-01-03T05:51:05.904Z,1.55
2019-01-03T05:53:36.649Z,1.17
2019-01-03T05:56:06.944Z,1.20
2019-01-03T05:58:38.962Z,1.25
2019-01-03T06:01:11.095Z,1.35
2019-01-03T06:03:41.356Z,1.30
2019-01-03T06:06:12.497Z,1.20
2019-01-03T06:08:43.184Z,1.20
2019-01-03T06:11:14.239Z,2.50
2019-01-03T06:13:45.291Z,3.11
2019-01-03T06:16:16.421Z,3.24
2019-01-03T06:18:47.485Z,3.71
2019-01-03T06:21:18.454Z,3.60
2019-01-03T06:23:49.525Z,3.29
2019-01-03T06:26:18.111Z,3.64
2019-01-03T06:28:46.829Z,3.72
2019-01-03T06:31:19.015Z,3.82
2019-01-03T06:33:51.116Z,3.69
2019-01-03T06:36:23.234Z,3.22
2019-01-03T06:38:56.253Z,3.01
2019-01-03T06:41:27.898Z,3.09
2019-01-03T06:43:58.906Z,3.47
2019-01-03T06:46:28.144Z,3.18
2019-01-03T06:48:59.174Z,3.11
2019-01-03T06:51:30.056Z,3.18
2019-01-03T06:54:01.125Z,2.78
2019-01-03T06:56:33.279Z,2.27
2019-01-03T06:59:03.592Z,2.01
2019-01-03T07:01:34.733Z,1.78
2019-01-03T07:04:03.338Z,1.77
2019-01-03T07:06:35.445Z,1.81
2019-01-03T07:09:08.990Z,1.88
2019-01-03T07:11:40.862Z,1.93
2019-01-03T07:14:10.799Z,1.76
2019-01-03T07:16:42.840Z,1.52
2019-01-03T07:19:14.789Z,1.50
2019-01-03T07:21:43.573Z,1.57
2019-01-03T07:24:13.854Z,1.52
2019-01-03T07:26:45.413Z,1.53
2019-01-03T07:29:16.524Z,1.37
2019-01-03T07:31:48.556Z,1.32
2019-01-03T07:34:20.579Z,1.35
2019-01-03T07:36:51.173Z,1.44
2019-01-03T07:39:22.397Z,1.54
2019-01-03T07:41:55.501Z,1.36
2019-01-03T07:44:26.478Z,1.30
2019-01-03T07:46:58.579Z,1.32
2019-01-03T07:49:29.680Z,1.15
2019-01-03T07:52:00.439Z,1.24
2019-01-03T07:54:31.622Z,1.01
2019-01-03T07:57:02.768Z,1.05
2019-01-03T07:59:33.378Z,1.02
2019-01-03T08:02:05.535Z,1.32
2019-01-03T08:04:36.526Z,1.43
2019-01-03T08:07:07.235Z,1.44
2019-01-03T08:09:38.212Z,1.16
2019-01-03T08:12:10.226Z,1.23
2019-01-03T08:14:38.960Z,1.41
2019-01-03T08:17:08.380Z,1.17
2019-01-03T08:19:40.493Z,1.09
2019-01-03T08:22:12.686Z,1.15
2019-01-03T08:24:43.447Z,1.07
2019-01-03T08:27:14.522Z,1.16
2019-01-03T08:29:47.200Z,1.29
2019-01-03T08:32:18.159Z,0.81
2019-01-03T08:34:49.269Z,1.10
2019-01-03T08:37:21.342Z,1.29
2019-01-03T08:39:53.365Z,1.42
2019-01-03T08:42:24.384Z,1.64
2019-01-03T08:44:55.802Z,1.79
2019-01-03T08:47:26.167Z,2.05
2019-01-03T08:49:58.261Z,2.16
2019-01-03T08:52:27.307Z,2.21
2019-01-03T08:54:59.551Z,2.45
2019-01-03T08:57:31.734Z,3.14
2019-01-03T09:00:03.742Z,2.99
2019-01-03T09:02:35.313Z,2.63
2019-01-03T09:05:06.774Z,2.69
2019-01-03T09:07:38.737Z,2.99
2019-01-03T09:10:10.498Z,2.61
2019-01-03T09:12:41.475Z,2.40
2019-01-03T09:15:13.453Z,2.17
2019-01-03T09:17:44.080Z,2.27
2019-01-03T09:20:17.313Z,2.07
2019-01-03T09:22:48.329Z,2.14
2019-01-03T09:25:16.908Z,2.33
2019-01-03T09:27:48.896Z,2.23
2019-01-03T09:30:20.014Z,2.07
2019-01-03T09:32:51.905Z,2.20
2019-01-03T09:35:22.630Z,2.27
2019-01-03T09:37:53.337Z,2.34
2019-01-03T09:40:24.324Z,2.29
2019-01-03T09:42:54.615Z,2.54
2019-01-03T09:45:22.966Z,2.50
2019-01-03T09:47:51.300Z,2.17
2019-01-03T09:50:19.662Z,2.40
2019-01-03T09:52:48.035Z,2.11
2019-01-03T09:55:16.384Z,2.21
2019-01-03T09:57:44.730Z,2.24
2019-01-03T10:00:13.190Z,2.36
2019-01-03T10:02:41.701Z,2.45
2019-01-03T10:05:11.396Z,2.51
2019-01-03T10:07:39.718Z,2.41
2019-01-03T10:10:08.392Z,2.49
2019-01-03T10:12:36.698Z,2.50
2019-01-03T10:15:05.782Z,2.62
2019-01-03T10:17:34.107Z,2.65
2019-01-03T10:20:02.642Z,2.54
2019-01-03T10:22:31.062Z,2.63
2019-01-03T10:24:59.397Z,2.81
2019-01-03T10:27:27.789Z,3.00
2019-01-03T10:29:56.189Z,2.95
2019-01-03T10:32:24.583Z,3.12
2019-01-03T10:34:53.011Z,3.26
2019-01-03T10:37:21.389Z,3.16
2019-01-03T10:39:49.700Z,2.94
2019-01-03T10:42:18.151Z,3.00
2019-01-03T10:44:46.485Z,3.19
2019-01-03T10:47:14.830Z,2.97
2019-01-03T10:49:43.167Z,3.34
2019-01-03T10:52:11.564Z,3.25
2019-01-03T10:54:39.905Z,3.54
2019-01-03T10:57:08.687Z,3.82
2019-01-03T10:59:37.028Z,4.08
2019-01-03T11:02:06.013Z,4.21
2019-01-03T11:04:35.050Z,4.05
2019-01-03T11:07:03.781Z,4.08
2019-01-03T11:09:32.738Z,4.14
2019-01-03T11:12:01.615Z,4.35
2019-01-03T11:14:30.702Z,4.40
2019-01-03T11:16:59.852Z,4.49
2019-01-03T11:19:28.167Z,4.42
2019-01-03T11:22:00.823Z,4.38
2019-01-03T11:24:29.206Z,4.45
2019-01-03T11:26:57.573Z,4.40
2019-01-03T11:29:25.925Z,4.39
2019-01-03T11:31:54.284Z,4.46
2019-01-03T11:34:22.633Z,4.52
2019-01-03T11:36:50.963Z,4.55
2019-01-03T11:39:19.302Z,4.57
2019-01-03T11:41:47.637Z,4.61
2019-01-03T11:44:16.001Z,4.74
2019-01-03T11:46:44.315Z,4.79
2019-01-03T11:49:12.664Z,5.05
2019-01-03T11:51:41.007Z,5.18
2019-01-03T11:54:09.713Z,5.23
2019-01-03T11:56:38.111Z,4.85
2019-01-03T11:59:06.466Z,4.94
2019-01-03T12:01:34.878Z,5.06
2019-01-03T12:04:03.218Z,5.10
2019-01-03T12:06:31.565Z,5.14
2019-01-03T12:08:59.920Z,5.26
2019-01-03T12:11:28.274Z,5.20
2019-01-03T12:13:56.583Z,5.13
2019-01-03T12:16:24.949Z,5.06
2019-01-03T12:18:53.293Z,5.30
2019-01-03T12:21:21.667Z,5.06
2019-01-03T12:23:49.977Z,5.14
2019-01-03T12:26:18.358Z,5.18
2019-01-03T12:28:46.738Z,5.09
2019-01-03T12:31:16.108Z,5.33
2019-01-03T12:33:44.445Z,5.26
2019-01-03T12:36:12.797Z,5.26
2019-01-03T12:38:41.157Z,5.49
2019-01-03T12:41:09.923Z,5.48
2019-01-03T12:43:38.253Z,5.53
2019-01-03T12:46:06.686Z,5.65
2019-01-03T12:48:35.074Z,5.62
2019-01-03T12:51:03.490Z,5.73
2019-01-03T12:53:31.834Z,5.78
2019-01-03T12:56:00.195Z,5.84
2019-01-03T12:58:28.514Z,5.86
2019-01-03T13:00:56.906Z,5.81
2019-01-03T13:03:25.286Z,5.87
2019-01-03T13:05:53.636Z,5.79
2019-01-03T13:08:21.966Z,5.86
2019-01-03T13:10:50.295Z,5.91
2019-01-03T13:13:18.658Z,5.01
2019-01-03T13:15:47.017Z,4.53
2019-01-03T13:18:15.361Z,4.71
2019-01-03T13:20:43.698Z,4.53
2019-01-03T13:23:12.153Z,4.76
2019-01-03T13:25:40.517Z,4.35
2019-01-03T13:28:09.261Z,4.47
2019-01-03T13:30:37.806Z,4.67
2019-01-03T13:33:06.229Z,4.80
2019-01-03T13:35:34.554Z,4.81
2019-01-03T13:38:02.919Z,4.73
2019-01-03T13:40:31.248Z,4.71
2019-01-03T13:42:59.590Z,4.64
2019-01-03T13:45:27.930Z,4.61
2019-01-03T13:47:56.274Z,4.46
2019-01-03T13:50:24.606Z,4.41
2019-01-03T13:52:52.969Z,4.57
2019-01-03T13:55:21.290Z,4.65
2019-01-03T13:57:49.637Z,4.45
2019-01-03T14:00:17.965Z,4.55
2019-01-03T14:02:46.333Z,4.72
2019-01-03T14:05:14.692Z,4.64
2019-01-03T14:07:43.079Z,4.80
2019-01-03T14:10:11.750Z,4.86
2019-01-03T14:12:40.098Z,4.86
2019-01-03T14:15:09.027Z,4.65
2019-01-03T14:17:37.484Z,4.57
2019-01-03T14:20:10.583Z,4.64
2019-01-03T14:22:39.291Z,4.67
2019-01-03T14:25:07.673Z,4.41
2019-01-03T14:27:36.094Z,4.65
2019-01-03T14:30:06.138Z,4.43
2019-01-03T14:32:35.521Z,4.34
2019-01-03T14:35:04.237Z,4.18
2019-01-03T14:37:32.645Z,4.35
2019-01-03T14:40:00.996Z,4.40
2019-01-03T14:42:29.405Z,4.46
2019-01-03T14:44:57.744Z,4.64
2019-01-03T14:47:26.093Z,4.70
2019-01-03T14:49:54.446Z,4.79
2019-01-03T14:52:22.788Z,5.01
2019-01-03T14:54:51.122Z,4.93
2019-01-03T14:57:19.459Z,4.58
2019-01-03T14:59:47.818Z,4.45
2019-01-03T15:02:16.161Z,4.55
2019-01-03T15:04:44.517Z,4.51
2019-01-03T15:07:12.853Z,4.64
2019-01-03T15:09:41.206Z,4.74
2019-01-03T15:12:09.908Z,4.57
2019-01-03T15:14:38.338Z,4.64
2019-01-03T15:17:06.705Z,4.53
2019-01-03T15:19:35.085Z,4.62
2019-01-03T15:22:03.550Z,4.69
2019-01-03T15:24:33.031Z,4.39
2019-01-03T15:27:01.485Z,4.39
2019-01-03T15:29:29.837Z,4.23
2019-01-03T15:31:58.173Z,4.26
2019-01-03T15:34:26.590Z,4.15
2019-01-03T15:36:54.994Z,4.15
2019-01-03T15:39:23.323Z,4.15
2019-01-03T15:41:51.718Z,4.03
2019-01-03T15:47:22.224Z,3.85
2019-01-03T15:49:50.602Z,3.78
2019-01-03T15:52:19.041Z,3.77
2019-01-03T15:54:47.389Z,3.92
2019-01-03T15:57:15.734Z,4.14
2019-01-03T15:59:44.100Z,3.95
2019-01-03T16:02:12.682Z,3.96
2019-01-03T16:04:41.039Z,3.63
2019-01-03T16:07:09.410Z,3.93
2019-01-03T16:09:37.763Z,3.81
2019-01-03T16:12:06.155Z,3.60
2019-01-03T16:14:34.501Z,3.39
2019-01-03T16:17:03.598Z,3.23
2019-01-03T16:19:31.962Z,3.05
2019-01-03T16:22:00.297Z,3.19
2019-01-03T16:24:28.646Z,3.16
2019-01-03T16:26:57.003Z,3.25
2019-01-03T16:29:25.399Z,3.28
2019-01-03T16:31:53.741Z,3.18
2019-01-03T16:34:22.102Z,2.96
2019-01-03T16:36:50.415Z,2.80
2019-01-03T16:39:18.809Z,2.78
2019-01-03T16:41:47.110Z,2.67
2019-01-03T16:44:15.837Z,2.76
2019-01-03T16:46:44.207Z,2.71
2019-01-03T16:49:12.602Z,2.67
2019-01-03T16:51:41.086Z,2.72
2019-01-03T16:54:09.489Z,2.70
2019-01-03T16:56:37.877Z,2.69
2019-01-03T16:59:06.205Z,2.68
2019-01-03T17:01:34.580Z,2.77
2019-01-03T17:04:02.942Z,2.77
2019-01-03T17:06:31.330Z,2.82
2019-01-03T17:08:59.672Z,2.96
2019-01-03T17:11:28.041Z,3.01
2019-01-03T17:13:56.422Z,3.19
2019-01-03T17:16:25.202Z,3.27
2019-01-03T17:18:53.549Z,3.14
2019-01-03T17:21:21.904Z,3.15
2019-01-03T17:23:50.275Z,3.04
2019-01-03T17:26:18.628Z,3.16
2019-01-03T17:28:46.993Z,3.19
2019-01-03T17:31:15.539Z,3.18
2019-01-03T17:33:43.934Z,3.17
2019-01-03T17:36:12.359Z,3.22
2019-01-03T17:38:40.746Z,3.44
2019-01-03T17:41:09.118Z,3.46
2019-01-03T17:43:37.440Z,3.52
2019-01-03T17:46:05.832Z,3.58
2019-01-03T17:48:34.271Z,3.71
2019-01-03T17:51:02.794Z,3.71
2019-01-03T17:53:31.154Z,3.82
2019-01-03T17:55:59.530Z,3.79
2019-01-03T17:58:27.870Z,3.61
2019-01-03T18:00:56.222Z,3.82
2019-01-03T18:03:24.731Z,3.71
2019-01-03T18:05:53.215Z,3.66
2019-01-03T18:08:21.543Z,3.59
2019-01-03T18:10:49.936Z,3.48
2019-01-03T18:13:18.833Z,3.58
2019-01-03T18:15:47.213Z,3.15
2019-01-03T18:18:15.661Z,2.94
2019-01-03T18:20:44.198Z,3.07
2019-01-03T18:23:13.165Z,2.88
2019-01-03T18:25:41.589Z,2.93
2019-01-03T18:28:09.955Z,2.83
2019-01-03T18:30:38.285Z,2.99
2019-01-03T18:33:06.648Z,2.89
2019-01-03T18:35:34.992Z,2.81
2019-01-03T18:38:03.372Z,2.63
2019-01-03T18:40:31.725Z,2.65
2019-01-03T18:43:00.085Z,2.60
2019-01-03T18:45:28.409Z,2.71
2019-01-03T18:47:56.777Z,2.72
2019-01-03T18:50:25.150Z,2.73
2019-01-03T18:52:53.532Z,2.67
2019-01-03T18:55:22.020Z,2.63
2019-01-03T18:57:50.430Z,2.73
2019-01-03T19:00:19.011Z,2.82
2019-01-03T19:02:47.449Z,2.85
2019-01-03T19:05:16.488Z,2.77
2019-01-03T19:07:44.807Z,2.69
2019-01-03T19:10:13.657Z,2.59
2019-01-03T19:12:42.009Z,2.67
2019-01-03T19:15:11.394Z,2.63
2019-01-03T19:17:39.781Z,2.72
2019-01-03T19:20:09.627Z,2.71
2019-01-03T19:22:38.113Z,2.59
2019-01-03T19:25:09.820Z,2.48
2019-01-03T19:27:38.176Z,2.47
2019-01-03T19:30:09.751Z,2.50
2019-01-03T19:32:38.185Z,2.49
2019-01-03T19:35:08.785Z,2.57
2019-01-03T19:37:37.149Z,2.50
2019-01-03T19:40:09.201Z,2.49
2019-01-03T19:42:37.562Z,2.36
2019-01-03T19:45:09.058Z,2.17
2019-01-03T19:47:37.404Z,2.19
2019-01-03T19:50:09.573Z,2.18
2019-01-03T19:52:37.988Z,2.00
2019-01-03T19:55:07.750Z,2.05
2019-01-03T19:57:36.085Z,2.06
2019-01-03T20:00:07.849Z,2.10
2019-01-03T20:02:36.246Z,2.10
2019-01-03T20:05:05.307Z,2.08
2019-01-03T20:07:33.707Z,1.94
2019-01-03T20:10:02.052Z,1.92
2019-01-03T20:12:30.375Z,1.77
2019-01-03T20:14:58.840Z,1.87
2019-01-03T20:17:27.209Z,1.77
2019-01-03T20:19:55.575Z,1.64
2019-01-03T20:22:23.918Z,1.60
2019-01-03T20:24:52.281Z,1.68
2019-01-03T20:27:20.699Z,1.75
2019-01-03T20:29:49.129Z,1.87
2019-01-03T20:32:17.466Z,1.86
2019-01-03T20:34:45.837Z,1.73
2019-01-03T20:37:14.423Z,1.81
2019-01-03T20:39:43.099Z,1.85
2019-01-03T20:42:11.616Z,1.78
2019-01-03T20:44:39.973Z,1.73
2019-01-03T20:47:08.416Z,1.81
2019-01-03T20:49:36.744Z,1.81
2019-01-03T20:52:05.130Z,1.75
2019-01-03T20:54:33.704Z,1.76
2019-01-03T20:57:03.053Z,1.60
2019-01-03T20:59:32.032Z,1.53
2019-01-03T21:02:01.487Z,1.44
2019-01-03T21:04:30.155Z,1.48
2019-01-03T21:06:58.546Z,1.57
2019-01-03T21:09:26.888Z,1.56
2019-01-03T21:11:55.240Z,1.60
2019-01-03T21:14:23.634Z,1.47
2019-01-03T21:16:51.973Z,1.39
2019-01-03T21:19:20.401Z,1.33
2019-01-03T21:21:48.705Z,1.30
2019-01-03T21:24:17.205Z,1.34
2019-01-03T21:26:45.834Z,1.32
2019-01-03T21:29:14.195Z,1.42
2019-01-03T21:31:42.541Z,1.29
2019-01-03T21:34:11.075Z,1.40
2019-01-03T21:36:39.442Z,1.31
2019-01-03T21:39:07.969Z,1.33
2019-01-03T21:41:36.621Z,1.40
2019-01-03T21:44:04.954Z,1.31
2019-01-03T21:46:33.425Z,1.23
2019-01-03T21:49:01.977Z,1.22
2019-01-03T21:51:30.525Z,1.11
2019-01-03T21:53:58.848Z,0.99
2019-01-03T21:56:27.476Z,1.05
2019-01-03T21:58:55.849Z,1.05
2019-01-03T22:01:24.313Z,1.19
2019-01-03T22:03:52.652Z,1.11
2019-01-03T22:06:21.010Z,1.06
2019-01-03T22:08:49.335Z,0.83
2019-01-03T22:11:17.888Z,0.61
2019-01-03T22:13:46.211Z,0.70
2019-01-03T22:16:15.085Z,0.71
2019-01-03T22:18:43.469Z,0.81
2019-01-03T22:21:11.914Z,0.74
2019-01-03T22:23:40.238Z,0.61
2019-01-03T22:26:08.603Z,0.61
2019-01-03T22:28:37.141Z,0.58
2019-01-03T22:31:05.582Z,0.54
2019-01-03T22:33:35.759Z,0.66
2019-01-03T22:36:04.252Z,0.44
2019-01-03T22:38:32.598Z,0.51
2019-01-03T22:41:00.949Z,0.49
2019-01-03T22:43:30.500Z,0.50
2019-01-03T22:45:58.845Z,0.42
2019-01-03T22:48:27.198Z,0.38
2019-01-03T22:50:55.579Z,0.35
2019-01-03T22:53:24.002Z,0.58
2019-01-03T22:55:52.330Z,0.48
2019-01-03T22:58:21.513Z,0.46
2019-01-03T23:00:50.505Z,0.56
2019-01-03T23:03:18.853Z,0.54
2019-01-03T23:05:47.196Z,0.54
2019-01-03T23:08:15.880Z,0.44
2019-01-03T23:10:44.273Z,0.46
2019-01-03T23:13:12.999Z,0.46
2019-01-03T23:15:41.387Z,0.41
2019-01-03T23:18:09.716Z,0.54
2019-01-03T23:20:38.143Z,0.43
2019-01-03T23:23:06.489Z,0.45
2019-01-03T23:25:34.834Z,0.62
2019-01-03T23:28:03.191Z,0.78
2019-01-03T23:30:31.537Z,0.86
2019-01-03T23:32:59.881Z,0.97
2019-01-03T23:35:28.204Z,0.83
2019-01-03T23:37:56.577Z,0.93
2019-01-03T23:40:24.939Z,0.87
2019-01-03T23:42:53.496Z,1.08
2019-01-03T23:45:22.017Z,1.09
2019-01-03T23:47:51.589Z,0.98
2019-01-03T23:50:25.398Z,1.01
2019-01-03T23:52:53.841Z,0.91
2019-01-03T23:55:23.102Z,1.03
2019-01-03T23:57:51.497Z,0.97
